createdAt,value
2023-05-11T00:00:51.724Z,101061.22
2023-05-11T00:03:56.085Z,101063.28
2023-05-11T00:06:58.872Z,101074.66
2023-05-11T00:10:01.441Z,101066.50
2023-05-11T00:13:04.018Z,101067.34
2023-05-11T00:16:06.960Z,101070.66
2023-05-11T00:19:11.068Z,101065.00
2023-05-11T00:22:13.662Z,101077.88
2023-05-11T00:25:16.416Z,101073.72
2023-05-11T00:28:18.994Z,101068.94
2023-05-11T00:31:21.663Z,101070.50
2023-05-11T00:34:25.608Z,101076.75
2023-05-11T00:37:28.220Z,101078.50
2023-05-11T00:40:32.886Z,101076.44
2023-05-11T00:43:35.710Z,101082.09
2023-05-11T00:46:38.869Z,101078.50
2023-05-11T00:49:43.871Z,101070.97
2023-05-11T00:52:46.722Z,101070.88
2023-05-11T00:55:49.377Z,101077.56
2023-05-11T00:58:52.890Z,101076.53
2023-05-11T01:01:55.866Z,101078.78
2023-05-11T01:05:00.529Z,101081.94
2023-05-11T01:08:09.971Z,101078.81
2023-05-11T01:11:18.744Z,101076.28
2023-05-11T01:14:24.201Z,101075.22
2023-05-11T01:17:35.293Z,101074.66
2023-05-11T01:20:39.855Z,101078.19
2023-05-11T01:23:52.467Z,101077.31
2023-05-11T01:27:17.979Z,101071.50
2023-05-11T01:30:28.933Z,101078.97
2023-05-11T01:33:35.097Z,101082.41
2023-05-11T01:36:43.769Z,101076.84
2023-05-11T01:39:51.659Z,101076.44
2023-05-11T01:43:01.229Z,101073.19
2023-05-11T01:46:06.846Z,101082.03
2023-05-11T01:49:11.199Z,101087.75
2023-05-11T01:52:15.538Z,101086.41
2023-05-11T01:55:20.597Z,101084.63
2023-05-11T01:58:25.402Z,101092.00
2023-05-11T02:01:30.880Z,101099.44
2023-05-11T02:04:34.082Z,101094.97
2023-05-11T02:07:39.419Z,101107.69
2023-05-11T02:10:43.305Z,101106.59
2023-05-11T02:13:47.841Z,101113.56
2023-05-11T02:16:53.166Z,101108.63
2023-05-11T02:19:57.272Z,101108.94
2023-05-11T02:23:01.335Z,101109.50
2023-05-11T02:26:04.688Z,101104.03
2023-05-11T02:29:07.344Z,101104.94
2023-05-11T02:32:21.419Z,101108.16
2023-05-11T02:35:26.360Z,101105.84
2023-05-11T02:38:33.382Z,101108.72
2023-05-11T02:41:42.856Z,101113.78
2023-05-11T02:44:54.337Z,101109.25
2023-05-11T02:48:00.368Z,101116.63
2023-05-11T02:51:04.704Z,101114.91
2023-05-11T02:54:10.722Z,101112.56
2023-05-11T02:57:14.184Z,101117.81
2023-05-11T03:00:17.737Z,101114.13
2023-05-11T03:03:22.197Z,101118.03
2023-05-11T03:06:24.904Z,101117.81
2023-05-11T03:09:27.639Z,101112.56
2023-05-11T03:12:32.994Z,101114.41
2023-05-11T03:15:36.590Z,101113.41
2023-05-11T03:18:41.261Z,101114.41
2023-05-11T03:21:44.404Z,101111.41
2023-05-11T03:24:47.604Z,101120.06
2023-05-11T03:27:52.229Z,101113.19
2023-05-11T03:30:55.462Z,101116.75
2023-05-11T03:33:59.713Z,101122.25
2023-05-11T03:37:03.608Z,101117.47
2023-05-11T03:40:09.028Z,101115.34
2023-05-11T03:43:13.312Z,101114.22
2023-05-11T03:46:20.345Z,101111.16
2023-05-11T03:49:25.505Z,101107.69
2023-05-11T03:52:28.404Z,101115.34
2023-05-11T03:55:31.084Z,101119.22
2023-05-11T03:58:33.787Z,101105.16
2023-05-11T04:01:36.505Z,101118.19
2023-05-11T04:04:40.705Z,101113.41
2023-05-11T04:07:43.326Z,101116.38
2023-05-11T04:10:45.985Z,101117.22
2023-05-11T04:13:48.708Z,101120.59
2023-05-11T04:16:51.300Z,101127.03
2023-05-11T04:19:55.227Z,101118.94
2023-05-11T04:22:57.856Z,101124.19
2023-05-11T04:26:00.630Z,101131.34
2023-05-11T04:29:03.777Z,101126.50
2023-05-11T04:32:06.439Z,101127.28
2023-05-11T04:35:10.885Z,101129.44
2023-05-11T04:38:13.481Z,101133.22
2023-05-11T04:41:16.334Z,101135.63
2023-05-11T04:44:18.917Z,101132.16
2023-05-11T04:47:21.510Z,101129.63
2023-05-11T04:50:25.461Z,101128.78
2023-05-11T04:53:28.218Z,101139.25
2023-05-11T04:56:30.782Z,101144.34
2023-05-11T04:59:34.646Z,101145.78
2023-05-11T05:02:37.382Z,101139.66
2023-05-11T05:05:41.386Z,101138.13
2023-05-11T05:08:43.985Z,101136.41
2023-05-11T05:11:46.598Z,101145.22
2023-05-11T05:14:49.192Z,101143.94
2023-05-11T05:17:51.871Z,101147.00
2023-05-11T05:20:55.834Z,101147.59
2023-05-11T05:23:58.390Z,101149.28
2023-05-11T05:27:00.980Z,101148.78
2023-05-11T05:30:03.645Z,101153.34
2023-05-11T05:33:06.348Z,101152.81
2023-05-11T05:36:10.527Z,101152.44
2023-05-11T05:39:13.205Z,101160.41
2023-05-11T05:42:15.860Z,101163.63
2023-05-11T05:45:18.458Z,101168.75
2023-05-11T05:48:21.079Z,101169.38
2023-05-11T05:51:25.078Z,101168.75
2023-05-11T05:54:27.701Z,101167.97
2023-05-11T05:57:31.019Z,101170.47
2023-05-11T06:00:33.696Z,101172.19
2023-05-11T06:03:36.384Z,101171.19
2023-05-11T06:06:40.461Z,101177.53
2023-05-11T06:09:43.148Z,101182.59
2023-05-11T06:12:45.752Z,101186.34
2023-05-11T06:15:48.368Z,101193.03
2023-05-11T06:18:51.209Z,101188.00
2023-05-11T06:21:55.187Z,101192.13
2023-05-11T06:24:57.999Z,101199.19
2023-05-11T06:28:00.615Z,101195.91
2023-05-11T06:31:03.763Z,101194.28
2023-05-11T06:34:06.454Z,101194.81
2023-05-11T06:37:10.414Z,101189.19
2023-05-11T06:40:13.484Z,101192.63
2023-05-11T06:43:16.064Z,101195.25
2023-05-11T06:46:18.706Z,101195.94
2023-05-11T06:49:22.408Z,101196.53
2023-05-11T06:52:26.446Z,101197.28
2023-05-11T06:55:29.023Z,101196.25
2023-05-11T06:58:31.668Z,101203.03
2023-05-11T07:01:34.401Z,101203.03
2023-05-11T07:04:37.202Z,101202.78
2023-05-11T07:07:41.944Z,101205.38
2023-05-11T07:10:44.595Z,101207.88
2023-05-11T07:13:47.230Z,101210.75
2023-05-11T07:16:52.731Z,101207.13
2023-05-11T07:19:55.538Z,101203.06
2023-05-11T07:23:00.167Z,101208.22
2023-05-11T07:26:08.750Z,101208.94
2023-05-11T07:29:11.335Z,101207.38
2023-05-11T07:32:14.050Z,101212.16
2023-05-11T07:35:16.703Z,101212.38
2023-05-11T07:38:20.681Z,101213.56
2023-05-11T07:41:26.629Z,101217.09
2023-05-11T07:44:29.269Z,101202.88
2023-05-11T07:47:33.233Z,101209.50
2023-05-11T07:50:37.021Z,101219.94
2023-05-11T07:53:41.065Z,101220.25
2023-05-11T07:56:43.678Z,101214.28
2023-05-11T07:59:46.382Z,101220.63
2023-05-11T08:02:49.183Z,101215.59
2023-05-11T08:05:51.891Z,101218.19
2023-05-11T08:08:55.847Z,101220.31
2023-05-11T08:12:01.396Z,101230.38
2023-05-11T08:15:04.543Z,101233.66
2023-05-11T08:18:07.712Z,101231.75
2023-05-11T08:21:10.445Z,101236.13
2023-05-11T08:24:14.408Z,101234.94
2023-05-11T08:27:17.202Z,101237.38
2023-05-11T08:30:20.173Z,101234.38
2023-05-11T08:33:36.459Z,101234.16
2023-05-11T08:36:40.521Z,101239.34
2023-05-11T08:39:47.673Z,101239.81
2023-05-11T08:42:53.872Z,101232.91
2023-05-11T08:46:01.543Z,101241.00
2023-05-11T08:49:04.355Z,101245.94
2023-05-11T08:52:07.913Z,101245.63
2023-05-11T08:55:12.748Z,101231.22
2023-05-11T08:58:19.359Z,101243.13
2023-05-11T09:01:23.637Z,101241.69
2023-05-11T09:04:27.148Z,101237.72
2023-05-11T09:07:30.733Z,101239.44
2023-05-11T09:10:34.937Z,101238.06
2023-05-11T09:13:37.855Z,101243.22
2023-05-11T09:16:41.292Z,101241.75
2023-05-11T09:20:01.100Z,101231.25
2023-05-11T09:23:03.794Z,101235.13
2023-05-11T09:26:15.014Z,101237.25
2023-05-11T09:29:20.707Z,101246.19
2023-05-11T09:32:23.387Z,101252.34
2023-05-11T09:35:28.659Z,101247.91
2023-05-11T09:38:32.275Z,101249.91
2023-05-11T09:41:36.567Z,101247.69
2023-05-11T09:44:41.564Z,101249.03
2023-05-11T09:47:44.235Z,101253.63
2023-05-11T09:50:47.785Z,101255.13
2023-05-11T09:53:50.403Z,101247.22
2023-05-11T09:56:58.171Z,101252.31
2023-05-11T10:00:01.223Z,101248.00
2023-05-11T10:03:05.726Z,101250.16
2023-05-11T10:06:08.968Z,101249.47
2023-05-11T10:09:11.743Z,101243.09
2023-05-11T10:12:15.844Z,101253.97
2023-05-11T10:15:21.255Z,101239.56
2023-05-11T10:18:24.264Z,101245.44
2023-05-11T10:21:28.594Z,101230.56
2023-05-11T10:24:33.640Z,101235.06
2023-05-11T10:27:38.023Z,101239.91
2023-05-11T10:30:42.619Z,101235.84
2023-05-11T10:33:47.231Z,101230.91
2023-05-11T10:36:53.311Z,101234.72
2023-05-11T10:39:56.127Z,101232.91
2023-05-11T10:43:19.851Z,101238.47
2023-05-11T10:46:38.076Z,101236.19
2023-05-11T10:50:02.880Z,101232.63
2023-05-11T10:53:20.782Z,101232.97
2023-05-11T10:56:47.679Z,101234.44
2023-05-11T11:00:14.208Z,101230.25
2023-05-11T11:03:17.079Z,101233.94
2023-05-11T11:06:24.614Z,101231.66
2023-05-11T11:09:27.350Z,101232.06
2023-05-11T11:12:31.041Z,101227.81
2023-05-11T11:16:16.170Z,101235.97
2023-05-11T11:19:41.982Z,101226.63
2023-05-11T11:22:47.063Z,101218.53
2023-05-11T11:25:54.822Z,101230.91
2023-05-11T11:29:11.569Z,101227.63
2023-05-11T11:32:27.958Z,101224.38
2023-05-11T11:35:48.643Z,101228.84
2023-05-11T11:39:01.143Z,101227.78
2023-05-11T11:42:04.571Z,101219.91
2023-05-11T11:45:27.244Z,101223.03
2023-05-11T11:48:32.398Z,101225.41
2023-05-11T11:51:39.978Z,101219.38
2023-05-11T11:54:44.829Z,101220.69
2023-05-11T11:57:51.143Z,101219.16
2023-05-11T12:00:54.102Z,101221.88
2023-05-11T12:04:34.297Z,101226.09
2023-05-11T12:07:42.904Z,101225.09
2023-05-11T12:10:48.094Z,101214.22
2023-05-11T12:13:50.960Z,101220.34
2023-05-11T12:17:04.460Z,101220.06
2023-05-11T12:20:15.119Z,101216.81
2023-05-11T12:23:20.100Z,101219.34
2023-05-11T12:26:23.952Z,101217.94
2023-05-11T12:29:26.910Z,101213.16
2023-05-11T12:32:30.644Z,101211.50
2023-05-11T12:35:34.849Z,101215.66
2023-05-11T12:38:45.681Z,101212.44
2023-05-11T12:41:49.983Z,101207.03
2023-05-11T12:44:52.971Z,101211.31
2023-05-11T12:47:58.265Z,101210.63
2023-05-11T12:51:00.895Z,101206.19
2023-05-11T12:54:05.005Z,101205.78
2023-05-11T12:57:09.391Z,101208.78
2023-05-11T13:00:13.912Z,101204.47
2023-05-11T13:03:22.858Z,101197.91
2023-05-11T13:06:25.599Z,101186.69
2023-05-11T13:09:29.530Z,101198.09
2023-05-11T13:12:34.079Z,101189.28
2023-05-11T13:15:51.237Z,101185.94
2023-05-11T13:19:04.279Z,101186.94
2023-05-11T13:22:08.130Z,101178.72
2023-05-11T13:25:12.281Z,101180.13
2023-05-11T13:28:15.662Z,101181.84
2023-05-11T13:31:19.284Z,101180.88
2023-05-11T13:34:22.078Z,101175.22
2023-05-11T13:37:24.658Z,101177.28
2023-05-11T13:40:28.847Z,101173.25
2023-05-11T13:43:31.471Z,101168.44
2023-05-11T13:46:34.170Z,101162.72
2023-05-11T13:49:36.880Z,101164.47
2023-05-11T13:52:40.325Z,101154.13
2023-05-11T13:55:44.326Z,101147.63
2023-05-11T13:58:46.920Z,101143.97
2023-05-11T14:01:49.578Z,101153.63
2023-05-11T14:04:52.295Z,101154.41
2023-05-11T14:07:54.901Z,101145.44
2023-05-11T14:10:58.829Z,101153.41
2023-05-11T14:14:01.767Z,101149.28
2023-05-11T14:17:04.475Z,101147.09
2023-05-11T14:20:08.668Z,101139.50
2023-05-11T14:23:11.245Z,101135.09
2023-05-11T14:26:15.226Z,101133.00
2023-05-11T14:29:17.786Z,101133.00
2023-05-11T14:32:20.929Z,101131.28
2023-05-11T14:35:23.695Z,101124.41
2023-05-11T14:38:26.360Z,101132.97
2023-05-11T14:41:30.358Z,101129.28
2023-05-11T14:44:32.982Z,101130.75
2023-05-11T14:47:35.888Z,101125.69
2023-05-11T14:50:38.694Z,101124.00
2023-05-11T14:53:41.397Z,101120.59
2023-05-11T14:56:46.173Z,101121.00
2023-05-11T14:59:59.096Z,101117.06
2023-05-11T15:03:03.258Z,101118.00
2023-05-11T15:06:06.427Z,101114.31
2023-05-11T15:09:09.068Z,101117.00
2023-05-11T15:12:13.093Z,101117.69
2023-05-11T15:15:15.755Z,101120.44
2023-05-11T15:18:18.565Z,101116.78
2023-05-11T15:21:21.937Z,101122.19
2023-05-11T15:24:24.524Z,101118.31
2023-05-11T15:27:28.616Z,101118.66
2023-05-11T15:30:32.708Z,101124.63
2023-05-11T15:33:35.710Z,101126.06
2023-05-11T15:36:38.328Z,101121.72
2023-05-11T15:39:41.039Z,101119.28
2023-05-11T15:42:44.986Z,101127.31
2023-05-11T15:45:47.626Z,101122.56
2023-05-11T15:48:50.267Z,101122.63
2023-05-11T15:51:52.864Z,101131.88
2023-05-11T15:54:55.444Z,101128.88
2023-05-11T15:57:59.438Z,101122.75
2023-05-11T16:01:02.094Z,101121.22
2023-05-11T16:04:04.736Z,101119.53
2023-05-11T16:07:07.345Z,101124.53
2023-05-11T16:10:10.904Z,101118.97
2023-05-11T16:13:14.886Z,101133.31
2023-05-11T16:16:17.483Z,101123.34
2023-05-11T16:19:20.125Z,101124.25
2023-05-11T16:22:22.692Z,101118.81
2023-05-11T16:25:25.296Z,101120.97
2023-05-11T16:28:29.205Z,101123.47
2023-05-11T16:31:31.822Z,101119.63
2023-05-11T16:34:35.118Z,101122.97
2023-05-11T16:37:37.901Z,101120.28
2023-05-11T16:40:40.502Z,101121.81
2023-05-11T16:43:46.039Z,101130.97
2023-05-11T16:46:49.108Z,101134.00
2023-05-11T16:49:51.851Z,101127.56
2023-05-11T16:52:54.931Z,101134.56
2023-05-11T16:55:58.024Z,101137.47
2023-05-11T16:59:01.983Z,101132.63
2023-05-11T17:02:06.777Z,101141.00
2023-05-11T17:05:11.409Z,101134.47
2023-05-11T17:08:14.052Z,101126.63
2023-05-11T17:11:16.831Z,101136.72
2023-05-11T17:14:20.890Z,101133.06
2023-05-11T17:17:23.482Z,101130.81
2023-05-11T17:20:26.642Z,101126.84
2023-05-11T17:23:29.306Z,101129.22
2023-05-11T17:26:43.400Z,101130.97
2023-05-11T17:29:50.887Z,101133.06
2023-05-11T17:32:53.667Z,101127.84
2023-05-11T17:35:56.422Z,101120.72
2023-05-11T17:38:59.006Z,101130.38
2023-05-11T17:42:02.007Z,101129.78
2023-05-11T17:45:07.112Z,101135.91
2023-05-11T17:48:10.042Z,101135.16
2023-05-11T17:51:12.692Z,101130.84
2023-05-11T17:54:15.300Z,101141.06
2023-05-11T17:57:17.918Z,101137.00
2023-05-11T18:00:22.716Z,101133.00
2023-05-11T18:03:25.391Z,101139.22
2023-05-11T18:06:28.250Z,101144.38
2023-05-11T18:09:30.926Z,101141.34
2023-05-11T18:12:33.544Z,101141.34
2023-05-11T18:15:37.814Z,101140.03
2023-05-11T18:18:42.181Z,101148.44
2023-05-11T18:21:44.862Z,101146.94
2023-05-11T18:24:47.465Z,101147.78
2023-05-11T18:27:50.468Z,101149.91
2023-05-11T18:30:54.433Z,101166.28
2023-05-11T18:33:57.110Z,101165.84
2023-05-11T18:36:59.705Z,101163.50
2023-05-11T18:40:06.182Z,101166.00
2023-05-11T18:43:08.888Z,101173.88
2023-05-11T18:46:12.848Z,101178.53
2023-05-11T18:49:15.441Z,101169.66
2023-05-11T18:52:18.138Z,101180.41
2023-05-11T18:55:20.881Z,101177.16
2023-05-11T18:58:23.601Z,101186.47
2023-05-11T19:01:39.812Z,101188.16
2023-05-11T19:04:49.495Z,101192.66
2023-05-11T19:07:52.210Z,101199.97
2023-05-11T19:10:54.828Z,101200.06
2023-05-11T19:13:57.423Z,101202.78
2023-05-11T19:17:01.529Z,101211.69
2023-05-11T19:20:04.840Z,101215.91
2023-05-11T19:23:07.441Z,101216.28
2023-05-11T19:26:10.066Z,101220.69
2023-05-11T19:29:16.814Z,101219.72
2023-05-11T19:32:21.777Z,101223.19
2023-05-11T19:35:24.607Z,101238.44
2023-05-11T19:38:27.447Z,101238.47
2023-05-11T19:41:30.027Z,101235.31
2023-05-11T19:44:34.467Z,101238.78
2023-05-11T19:47:38.711Z,101245.97
2023-05-11T19:50:41.643Z,101247.88
2023-05-11T19:53:44.675Z,101256.22
2023-05-11T19:56:47.598Z,101260.88
2023-05-11T19:59:50.217Z,101255.84
2023-05-11T20:02:55.011Z,101256.81
2023-05-11T20:05:57.704Z,101260.06
2023-05-11T20:09:00.300Z,101261.13
2023-05-11T20:12:03.269Z,101258.13
2023-05-11T20:15:06.622Z,101255.50
2023-05-11T20:18:10.609Z,101260.94
2023-05-11T20:21:13.623Z,101262.94
2023-05-11T20:24:16.215Z,101260.63
2023-05-11T20:27:18.824Z,101268.03
2023-05-11T20:30:21.495Z,101270.63
2023-05-11T20:36:31.604Z,101275.13
2023-05-11T20:39:34.493Z,101274.00
2023-05-11T20:42:38.020Z,101270.38
2023-05-11T20:45:40.644Z,101276.84
2023-05-11T20:48:49.461Z,101279.94
2023-05-11T20:51:54.649Z,101287.25
2023-05-11T20:54:57.252Z,101283.91
2023-05-11T20:57:59.879Z,101285.78
2023-05-11T21:01:02.552Z,101288.69
2023-05-11T21:04:06.787Z,101296.94
2023-05-11T21:07:09.455Z,101291.22
2023-05-11T21:10:13.242Z,101291.28
2023-05-11T21:13:15.851Z,101287.03
2023-05-11T21:16:18.793Z,101290.25
2023-05-11T21:19:22.750Z,101298.91
2023-05-11T21:22:25.330Z,101298.38
2023-05-11T21:25:27.939Z,101293.16
2023-05-11T21:28:32.556Z,101299.25
2023-05-11T21:31:35.291Z,101301.25
2023-05-11T21:34:39.300Z,101298.44
2023-05-11T21:37:42.081Z,101297.44
2023-05-11T21:40:44.800Z,101306.84
2023-05-11T21:43:47.410Z,101308.75
2023-05-11T21:46:50.444Z,101318.69
2023-05-11T21:49:54.567Z,101321.50
2023-05-11T21:52:57.161Z,101334.34
2023-05-11T21:55:59.735Z,101337.44
2023-05-11T21:59:02.324Z,101340.22
2023-05-11T22:02:05.077Z,101345.13
2023-05-11T22:05:10.306Z,101353.22
2023-05-11T22:08:15.462Z,101356.53
2023-05-11T22:11:19.420Z,101356.88
2023-05-11T22:14:24.058Z,101355.25
2023-05-11T22:17:26.711Z,101363.81
2023-05-11T22:20:31.597Z,101366.91
2023-05-11T22:23:35.277Z,101365.34
2023-05-11T22:26:37.860Z,101366.44
2023-05-11T22:29:40.478Z,101373.09
2023-05-11T22:32:43.107Z,101369.06
2023-05-11T22:35:47.240Z,101364.50
2023-05-11T22:38:49.893Z,101377.22
2023-05-11T22:41:52.511Z,101375.59
2023-05-11T22:44:55.261Z,101378.69
2023-05-11T22:47:57.986Z,101377.75
2023-05-11T22:51:06.190Z,101383.53
2023-05-11T22:54:08.866Z,101395.50
2023-05-11T22:57:14.646Z,101391.31
2023-05-11T23:00:17.907Z,101396.13
2023-05-11T23:03:21.158Z,101393.47
2023-05-11T23:06:25.340Z,101384.97
2023-05-11T23:09:28.295Z,101389.56
2023-05-11T23:12:30.912Z,101398.78
2023-05-11T23:15:33.530Z,101395.66
2023-05-11T23:18:36.292Z,101391.47
2023-05-11T23:21:40.439Z,101392.00
2023-05-11T23:24:43.020Z,101396.47
2023-05-11T23:27:45.596Z,101400.59
2023-05-11T23:30:48.172Z,101394.81
2023-05-11T23:33:50.730Z,101388.69
2023-05-11T23:36:54.793Z,101394.81
2023-05-11T23:39:57.400Z,101396.69
2023-05-11T23:42:59.980Z,101402.16
2023-05-11T23:46:02.584Z,101403.66
2023-05-11T23:49:05.323Z,101397.38
2023-05-11T23:52:09.411Z,101407.03
2023-05-11T23:55:12.612Z,101399.00
2023-05-11T23:58:15.328Z,101394.53
